createdAt,value
2022-11-17T00:00:53.231Z,98156.09
2022-11-17T00:03:25.453Z,98167.41
2022-11-17T00:05:57.352Z,98160.75
2022-11-17T00:08:26.648Z,98162.25
2022-11-17T00:10:57.183Z,98166.63
2022-11-17T00:13:45.597Z,98145.34
2022-11-17T00:16:19.759Z,98144.31
2022-11-17T00:19:09.755Z,98140.69
2022-11-17T00:21:39.235Z,98126.50
2022-11-17T00:24:07.953Z,98130.72
2022-11-17T00:26:53.144Z,98139.50
2022-11-17T00:29:23.919Z,98132.69
2022-11-17T00:32:11.680Z,98142.63
2022-11-17T00:34:41.703Z,98152.63
2022-11-17T00:37:11.646Z,98142.13
2022-11-17T00:39:39.742Z,98152.47
2022-11-17T00:42:08.173Z,98157.47
2022-11-17T00:44:36.282Z,98163.28
2022-11-17T00:47:05.492Z,98164.78
2022-11-17T00:49:33.593Z,98149.81
2022-11-17T00:52:10.517Z,98145.50
2022-11-17T00:54:38.632Z,98151.63
2022-11-17T00:57:07.955Z,98158.59
2022-11-17T00:59:36.279Z,98147.78
2022-11-17T01:02:07.828Z,98146.97
2022-11-17T01:04:36.254Z,98142.81
2022-11-17T01:07:07.100Z,98150.66
2022-11-17T01:09:35.132Z,98150.81
2022-11-17T01:12:07.530Z,98151.28
2022-11-17T01:14:36.450Z,98147.31
2022-11-17T01:17:06.332Z,98141.50
2022-11-17T01:19:35.284Z,98134.69
2022-11-17T01:22:04.154Z,98126.53
2022-11-17T01:24:33.586Z,98129.34
2022-11-17T01:27:01.877Z,98121.56
2022-11-17T01:29:29.923Z,98120.53
2022-11-17T01:31:59.451Z,98119.69
2022-11-17T01:34:27.702Z,98107.22
2022-11-17T01:37:14.411Z,98106.72
2022-11-17T01:39:45.101Z,98103.91
2022-11-17T01:42:22.870Z,98105.44
2022-11-17T01:45:05.358Z,98107.91
2022-11-17T01:47:41.639Z,98099.44
2022-11-17T01:50:20.101Z,98104.75
2022-11-17T01:52:48.684Z,98103.41
2022-11-17T01:55:19.685Z,98101.94
2022-11-17T01:57:49.196Z,98101.28
2022-11-17T02:00:18.320Z,98109.25
2022-11-17T02:02:55.087Z,98104.56
2022-11-17T02:05:35.231Z,98097.63
2022-11-17T02:08:06.443Z,98094.31
2022-11-17T02:10:36.557Z,98091.84
2022-11-17T02:13:04.749Z,98091.47
2022-11-17T02:15:37.249Z,98084.16
2022-11-17T02:18:06.548Z,98086.16
2022-11-17T02:20:44.681Z,98085.19
2022-11-17T02:23:38.428Z,98080.16
2022-11-17T02:26:35.831Z,98076.84
2022-11-17T02:29:07.970Z,98074.81
2022-11-17T02:31:40.686Z,98062.06
2022-11-17T02:34:18.016Z,98062.38
2022-11-17T02:37:01.222Z,98057.75
2022-11-17T02:39:34.142Z,98064.22
2022-11-17T02:42:09.158Z,98069.03
2022-11-17T02:44:41.813Z,98070.88
2022-11-17T02:47:14.120Z,98068.25
2022-11-17T02:49:48.219Z,98065.75
2022-11-17T02:52:16.808Z,98074.41
2022-11-17T02:54:45.159Z,98079.72
2022-11-17T02:57:28.788Z,98070.88
2022-11-17T02:59:58.818Z,98069.22
2022-11-17T03:02:45.226Z,98068.75
2022-11-17T03:05:17.240Z,98065.03
2022-11-17T03:08:08.879Z,98073.06
2022-11-17T03:10:49.751Z,98075.22
2022-11-17T03:13:24.452Z,98067.38
2022-11-17T03:15:57.178Z,98063.69
2022-11-17T03:18:33.645Z,98077.19
2022-11-17T03:21:07.624Z,98079.84
2022-11-17T03:23:42.005Z,98084.84
2022-11-17T03:26:15.987Z,98078.00
2022-11-17T03:28:48.291Z,98079.53
2022-11-17T03:31:18.013Z,98085.34
2022-11-17T03:33:50.354Z,98074.47
2022-11-17T03:36:23.827Z,98065.84
2022-11-17T03:39:00.542Z,98077.97
2022-11-17T03:41:31.496Z,98068.34
2022-11-17T03:44:00.444Z,98071.84
2022-11-17T03:49:20.506Z,98066.53
2022-11-17T03:51:49.600Z,98066.31
2022-11-17T03:54:19.742Z,98059.38
2022-11-17T03:56:57.810Z,98061.88
2022-11-17T03:59:31.039Z,98067.84
2022-11-17T04:02:02.843Z,98066.34
2022-11-17T04:04:58.557Z,98059.00
2022-11-17T04:07:29.367Z,98056.84
2022-11-17T04:09:57.491Z,98055.03
2022-11-17T04:12:45.072Z,98055.22
2022-11-17T04:15:31.902Z,98054.41
2022-11-17T04:18:01.462Z,98063.69
2022-11-17T04:20:36.424Z,98066.88
2022-11-17T04:23:11.506Z,98062.84
2022-11-17T04:26:00.900Z,98068.00
2022-11-17T04:28:43.461Z,98074.97
2022-11-17T04:31:15.926Z,98076.50
2022-11-17T04:33:49.035Z,98076.94
2022-11-17T04:36:19.894Z,98080.31
2022-11-17T04:38:49.424Z,98080.81
2022-11-17T04:41:36.913Z,98088.47
2022-11-17T04:44:06.112Z,98082.78
2022-11-17T04:46:36.772Z,98081.97
2022-11-17T04:49:08.294Z,98082.31
2022-11-17T04:51:37.297Z,98087.63
2022-11-17T04:54:07.456Z,98087.63
2022-11-17T04:56:35.662Z,98091.66
2022-11-17T04:59:05.327Z,98092.28
2022-11-17T05:01:33.999Z,98091.78
2022-11-17T05:04:04.935Z,98091.78
2022-11-17T05:06:36.778Z,98079.28
2022-11-17T05:09:07.437Z,98085.59
2022-11-17T05:11:53.970Z,98091.44
2022-11-17T05:14:25.457Z,98089.81
2022-11-17T05:17:11.619Z,98080.84
2022-11-17T05:19:44.256Z,98088.97
2022-11-17T05:22:32.978Z,98082.84
2022-11-17T05:25:02.260Z,98073.19
2022-11-17T05:27:32.897Z,98066.56
2022-11-17T05:30:02.110Z,98063.53
2022-11-17T05:32:30.581Z,98075.22
2022-11-17T05:35:01.160Z,98080.03
2022-11-17T05:37:34.947Z,98071.06
2022-11-17T05:40:03.293Z,98072.41
2022-11-17T05:42:31.692Z,98068.22
2022-11-17T05:44:59.767Z,98069.91
2022-11-17T05:47:27.869Z,98076.72
2022-11-17T05:49:56.900Z,98070.38
2022-11-17T05:52:26.367Z,98069.53
2022-11-17T05:54:56.244Z,98076.03
2022-11-17T05:57:28.589Z,98072.22
2022-11-17T06:00:01.032Z,98080.53
2022-11-17T06:02:31.815Z,98085.84
2022-11-17T06:05:02.502Z,98087.66
2022-11-17T06:07:32.898Z,98081.53
2022-11-17T06:10:03.411Z,98092.50
2022-11-17T06:12:33.810Z,98089.84
2022-11-17T06:15:01.907Z,98093.34
2022-11-17T06:17:32.432Z,98101.63
2022-11-17T06:20:06.116Z,98092.31
2022-11-17T06:22:35.709Z,98088.50
2022-11-17T06:25:14.803Z,98090.50
2022-11-17T06:27:44.179Z,98095.66
2022-11-17T06:30:15.223Z,98082.69
2022-11-17T06:32:46.383Z,98089.00
2022-11-17T06:35:16.648Z,98090.34
2022-11-17T06:37:44.939Z,98098.63
2022-11-17T06:40:14.421Z,98096.78
2022-11-17T06:43:01.315Z,98093.78
2022-11-17T06:45:29.320Z,98086.84
2022-11-17T06:47:59.868Z,98081.34
2022-11-17T06:50:30.267Z,98075.38
2022-11-17T06:52:59.099Z,98081.88
2022-11-17T06:55:29.582Z,98075.06
2022-11-17T06:58:01.632Z,98085.69
2022-11-17T07:00:30.592Z,98082.19
2022-11-17T07:03:01.729Z,98093.16
2022-11-17T07:05:30.261Z,98086.50
2022-11-17T07:08:00.142Z,98084.81
2022-11-17T07:10:31.321Z,98087.16
2022-11-17T07:12:59.701Z,98075.81
2022-11-17T07:15:27.964Z,98084.81
2022-11-17T07:17:58.970Z,98082.81
2022-11-17T07:20:27.116Z,98080.00
2022-11-17T07:23:00.562Z,98081.00
2022-11-17T07:25:32.167Z,98080.31
2022-11-17T07:28:01.777Z,98077.97
2022-11-17T07:30:31.062Z,98075.22
2022-11-17T07:33:00.085Z,98091.81
2022-11-17T07:35:30.610Z,98095.13
2022-11-17T07:38:10.297Z,98099.81
2022-11-17T07:40:41.397Z,98101.31
2022-11-17T07:43:18.911Z,98104.28
2022-11-17T07:45:47.264Z,98102.44
2022-11-17T07:48:18.667Z,98096.31
2022-11-17T07:50:47.380Z,98087.69
2022-11-17T07:53:16.631Z,98079.22
2022-11-17T07:55:49.276Z,98063.22
2022-11-17T07:58:17.687Z,98072.84
2022-11-17T08:00:49.314Z,98082.16
2022-11-17T08:03:28.087Z,98082.78
2022-11-17T08:06:03.141Z,98083.28
2022-11-17T08:08:41.471Z,98086.47
2022-11-17T08:11:16.722Z,98087.44
2022-11-17T08:13:48.441Z,98085.72
2022-11-17T08:16:20.922Z,98092.38
2022-11-17T08:18:59.860Z,98090.72
2022-11-17T08:21:31.431Z,98095.16
2022-11-17T08:24:04.006Z,98092.03
2022-11-17T08:26:37.479Z,98088.84
2022-11-17T08:29:07.350Z,98097.09
2022-11-17T08:31:38.802Z,98103.06
2022-11-17T08:34:12.793Z,98110.94
2022-11-17T08:36:42.623Z,98115.53
2022-11-17T08:39:13.097Z,98120.22
2022-11-17T08:41:49.035Z,98115.75
2022-11-17T08:44:27.434Z,98120.03
2022-11-17T08:46:59.146Z,98112.91
2022-11-17T08:49:30.784Z,98127.34
2022-11-17T08:51:59.616Z,98130.06
2022-11-17T08:54:35.572Z,98140.84
2022-11-17T08:57:10.375Z,98136.38
2022-11-17T08:59:48.846Z,98134.00
2022-11-17T09:02:27.813Z,98128.50
2022-11-17T09:04:57.010Z,98117.03
2022-11-17T09:07:33.485Z,98118.81
2022-11-17T09:10:05.963Z,98124.13
2022-11-17T09:12:44.424Z,98118.63
2022-11-17T09:15:21.709Z,98123.66
2022-11-17T09:17:50.459Z,98121.63
2022-11-17T09:20:29.836Z,98127.03
2022-11-17T09:23:03.113Z,98117.47
2022-11-17T09:25:45.221Z,98115.72
2022-11-17T09:28:18.066Z,98116.06
2022-11-17T09:30:52.218Z,98117.81
2022-11-17T09:33:22.911Z,98115.81
2022-11-17T09:36:02.402Z,98111.06
2022-11-17T09:38:34.704Z,98108.53
2022-11-17T09:41:16.570Z,98105.22
2022-11-17T09:43:53.056Z,98099.91
2022-11-17T09:46:30.582Z,98100.72
2022-11-17T09:49:05.574Z,98097.69
2022-11-17T09:51:36.609Z,98094.88
2022-11-17T09:54:09.336Z,98106.84
2022-11-17T09:56:37.991Z,98105.63
2022-11-17T09:59:12.128Z,98104.00
2022-11-17T10:01:46.584Z,98106.09
2022-11-17T10:04:22.464Z,98101.97
2022-11-17T10:06:57.551Z,98089.97
2022-11-17T10:09:46.951Z,98085.34
2022-11-17T10:12:24.867Z,98087.81
2022-11-17T10:14:56.638Z,98091.84
2022-11-17T10:17:30.122Z,98094.69
2022-11-17T10:20:02.527Z,98095.69
2022-11-17T10:22:38.683Z,98106.84
2022-11-17T10:25:41.917Z,98106.03
2022-11-17T10:28:27.484Z,98083.88
2022-11-17T10:31:13.289Z,98080.84
2022-11-17T10:33:55.577Z,98097.97
2022-11-17T10:36:28.001Z,98110.25
2022-11-17T10:39:03.508Z,98116.50
2022-11-17T10:41:38.328Z,98098.13
2022-11-17T10:44:17.592Z,98103.69
2022-11-17T10:47:03.144Z,98109.00
2022-11-17T10:49:42.259Z,98111.59
2022-11-17T10:52:19.548Z,98112.66
2022-11-17T10:54:57.932Z,98109.34
2022-11-17T10:57:27.674Z,98122.50
2022-11-17T10:59:57.993Z,98106.13
2022-11-17T11:02:30.846Z,98106.53
2022-11-17T11:05:08.555Z,98104.50
2022-11-17T11:07:37.598Z,98117.84
2022-11-17T11:10:11.777Z,98132.13
2022-11-17T11:12:44.800Z,98137.56
2022-11-17T11:15:17.959Z,98123.13
2022-11-17T11:17:47.429Z,98125.31
2022-11-17T11:20:18.594Z,98130.66
2022-11-17T11:22:51.273Z,98128.94
2022-11-17T11:25:31.769Z,98119.28
2022-11-17T11:28:12.643Z,98107.19
2022-11-17T11:30:49.148Z,98102.00
2022-11-17T11:33:26.923Z,98113.31
2022-11-17T11:36:07.720Z,98113.31
2022-11-17T11:38:58.887Z,98112.34
2022-11-17T11:41:40.319Z,98112.41
2022-11-17T11:44:21.837Z,98112.19
2022-11-17T11:46:56.812Z,98131.63
2022-11-17T11:49:33.705Z,98143.09
2022-11-17T11:52:08.261Z,98149.22
2022-11-17T11:54:43.803Z,98153.88
2022-11-17T11:57:19.359Z,98164.91
2022-11-17T11:59:52.074Z,98159.78
2022-11-17T12:02:27.848Z,98165.25
2022-11-17T12:05:03.182Z,98166.56
2022-11-17T12:07:38.551Z,98173.41
2022-11-17T12:10:12.373Z,98175.72
2022-11-17T12:12:41.503Z,98172.25
2022-11-17T12:15:34.097Z,98170.69
2022-11-17T12:18:05.727Z,98172.56
2022-11-17T12:21:06.002Z,98166.94
2022-11-17T12:23:41.015Z,98181.22
2022-11-17T12:26:09.391Z,98205.16
2022-11-17T12:28:39.172Z,98215.66
2022-11-17T12:31:10.996Z,98216.50
2022-11-17T12:34:26.722Z,98201.53
2022-11-17T12:37:26.319Z,98205.34
2022-11-17T12:40:27.949Z,98190.06
2022-11-17T12:43:24.354Z,98199.00
2022-11-17T12:46:01.409Z,98199.19
2022-11-17T12:48:38.803Z,98190.53
2022-11-17T12:51:17.919Z,98177.22
2022-11-17T12:54:15.854Z,98178.22
2022-11-17T12:56:58.066Z,98167.25
2022-11-17T13:00:16.697Z,98156.81
2022-11-17T13:03:02.930Z,98147.28
2022-11-17T13:05:31.431Z,98142.63
2022-11-17T13:08:22.709Z,98125.88
2022-11-17T13:10:53.271Z,98110.66
2022-11-17T13:13:23.609Z,98115.00
2022-11-17T13:15:54.048Z,98109.69
2022-11-17T13:18:31.701Z,98101.56
2022-11-17T13:21:01.271Z,98116.38
2022-11-17T13:23:30.985Z,98111.03
2022-11-17T13:26:21.484Z,98100.53
2022-11-17T13:29:03.819Z,98082.41
2022-11-17T13:31:31.859Z,98075.44
2022-11-17T13:34:06.125Z,98090.72
2022-11-17T13:36:35.781Z,98089.09
2022-11-17T13:39:05.340Z,98100.06
2022-11-17T13:41:38.853Z,98088.72
2022-11-17T13:44:13.270Z,98072.78
2022-11-17T13:46:42.731Z,98075.59
2022-11-17T13:49:34.084Z,98075.09
2022-11-17T13:52:05.127Z,98064.44
2022-11-17T13:54:36.265Z,98083.72
2022-11-17T13:57:07.998Z,98083.59
2022-11-17T13:59:38.848Z,98091.56
2022-11-17T14:02:32.284Z,98094.88
2022-11-17T14:05:49.289Z,98101.75
2022-11-17T14:08:31.752Z,98111.84
2022-11-17T14:11:16.020Z,98108.03
2022-11-17T14:13:50.345Z,98115.50
2022-11-17T14:16:24.510Z,98133.16
2022-11-17T14:19:01.578Z,98139.31
2022-11-17T14:21:31.507Z,98133.00
2022-11-17T14:24:05.990Z,98137.50
2022-11-17T14:26:35.278Z,98131.19
2022-11-17T14:29:04.912Z,98133.34
2022-11-17T14:31:34.280Z,98133.00
2022-11-17T14:34:03.389Z,98146.13
2022-11-17T14:36:33.319Z,98145.66
2022-11-17T14:39:02.144Z,98137.50
2022-11-17T14:41:31.714Z,98141.97
2022-11-17T14:43:59.775Z,98147.47
2022-11-17T14:46:30.319Z,98144.16
2022-11-17T14:48:58.951Z,98151.94
2022-11-17T14:51:27.214Z,98154.28
2022-11-17T14:53:55.367Z,98152.63
2022-11-17T14:56:25.715Z,98167.75
2022-11-17T14:58:56.016Z,98162.09
2022-11-17T15:01:28.348Z,98155.78
2022-11-17T15:03:58.665Z,98162.47
2022-11-17T15:06:27.685Z,98163.97
2022-11-17T15:08:57.394Z,98154.81
2022-11-17T15:11:26.489Z,98162.63
2022-11-17T15:13:54.764Z,98169.28
2022-11-17T15:16:23.965Z,98175.59
2022-11-17T15:18:51.989Z,98170.78
2022-11-17T15:21:28.854Z,98160.63
2022-11-17T15:23:58.412Z,98161.78
2022-11-17T15:26:27.890Z,98163.94
2022-11-17T15:28:57.828Z,98165.44
2022-11-17T15:31:27.704Z,98163.78
2022-11-17T15:33:57.474Z,98164.94
2022-11-17T15:36:27.753Z,98165.94
2022-11-17T15:38:57.682Z,98152.16
2022-11-17T15:41:29.895Z,98153.81
2022-11-17T15:44:02.580Z,98156.47
2022-11-17T15:46:31.330Z,98154.97
2022-11-17T15:48:59.465Z,98167.94
2022-11-17T15:51:30.116Z,98172.91
2022-11-17T15:53:59.960Z,98173.28
2022-11-17T15:56:30.373Z,98161.16
2022-11-17T15:59:06.065Z,98154.00
2022-11-17T16:01:37.145Z,98142.00
2022-11-17T16:04:07.194Z,98158.63
2022-11-17T16:06:38.542Z,98167.59
2022-11-17T16:09:15.872Z,98171.63
2022-11-17T16:11:45.768Z,98177.25
2022-11-17T16:14:15.088Z,98169.09
2022-11-17T16:16:46.791Z,98161.94
2022-11-17T16:19:18.422Z,98153.31
2022-11-17T16:21:50.273Z,98157.63
2022-11-17T16:24:18.378Z,98148.66
2022-11-17T16:26:47.771Z,98164.97
2022-11-17T16:29:16.722Z,98164.47
2022-11-17T16:31:46.890Z,98169.94
2022-11-17T16:34:17.958Z,98164.44
2022-11-17T16:36:48.676Z,98159.78
2022-11-17T16:39:18.230Z,98156.47
2022-11-17T16:41:50.367Z,98162.63
2022-11-17T16:44:28.944Z,98163.59
2022-11-17T16:46:58.278Z,98160.13
2022-11-17T16:49:29.905Z,98148.19
2022-11-17T16:52:00.616Z,98152.50
2022-11-17T16:54:31.878Z,98148.00
2022-11-17T16:57:01.800Z,98156.16
2022-11-17T16:59:31.672Z,98157.78
2022-11-17T17:02:04.383Z,98157.31
2022-11-17T17:04:48.190Z,98155.63
2022-11-17T17:07:17.946Z,98160.59
2022-11-17T17:09:51.453Z,98155.28
2022-11-17T17:12:21.051Z,98136.00
2022-11-17T17:14:51.042Z,98116.25
2022-11-17T17:17:20.101Z,98113.78
2022-11-17T17:19:50.144Z,98143.03
2022-11-17T17:22:29.445Z,98134.34
2022-11-17T17:24:59.575Z,98141.03
2022-11-17T17:27:31.441Z,98124.72
2022-11-17T17:30:01.467Z,98133.88
2022-11-17T17:32:31.006Z,98110.94
2022-11-17T17:35:01.302Z,98118.06
2022-11-17T17:37:38.138Z,98101.16
2022-11-17T17:40:09.649Z,98114.78
2022-11-17T17:45:22.520Z,98126.34
2022-11-17T17:47:56.994Z,98116.25
2022-11-17T17:50:26.110Z,98113.25
2022-11-17T17:52:57.044Z,98117.56
2022-11-17T17:55:28.893Z,98122.25
2022-11-17T17:57:58.530Z,98129.69
2022-11-17T18:00:30.397Z,98134.31
2022-11-17T18:02:59.065Z,98117.72
2022-11-17T18:05:30.969Z,98121.91
2022-11-17T18:08:01.675Z,98136.00
2022-11-17T18:10:31.270Z,98141.97
2022-11-17T18:13:05.175Z,98138.81
2022-11-17T18:15:42.853Z,98134.81
2022-11-17T18:18:11.939Z,98136.00
2022-11-17T18:20:41.319Z,98136.66
2022-11-17T18:23:13.531Z,98129.69
2022-11-17T18:25:44.114Z,98124.91
2022-11-17T18:28:13.814Z,98126.69
2022-11-17T18:30:44.384Z,98127.69
2022-11-17T18:33:14.037Z,98135.66
2022-11-17T18:35:44.344Z,98128.16
2022-11-17T18:38:18.948Z,98121.34
2022-11-17T18:40:54.432Z,98114.34
2022-11-17T18:43:32.486Z,98115.88
2022-11-17T18:46:14.200Z,98111.88
2022-11-17T18:48:46.478Z,98114.50
2022-11-17T18:51:19.876Z,98123.34
2022-11-17T18:53:54.533Z,98127.78
2022-11-17T18:56:26.531Z,98125.97
2022-11-17T18:58:57.245Z,98124.69
2022-11-17T19:01:28.307Z,98123.84
2022-11-17T19:04:00.748Z,98126.00
2022-11-17T19:06:32.425Z,98121.34
2022-11-17T19:09:03.673Z,98122.72
2022-11-17T19:11:36.379Z,98124.16
2022-11-17T19:14:06.621Z,98113.88
2022-11-17T19:16:44.871Z,98117.38
2022-11-17T19:19:16.515Z,98121.34
2022-11-17T19:21:46.987Z,98107.88
2022-11-17T19:24:23.305Z,98121.91
2022-11-17T19:26:53.775Z,98124.25
2022-11-17T19:29:25.312Z,98122.59
2022-11-17T19:31:56.316Z,98115.22
2022-11-17T19:34:27.027Z,98122.41
2022-11-17T19:39:45.627Z,98126.22
2022-11-17T19:42:18.507Z,98113.44
2022-11-17T19:44:52.082Z,98111.41
2022-11-17T19:47:25.537Z,98115.91
2022-11-17T19:49:56.485Z,98118.94
2022-11-17T19:55:17.000Z,98125.13
2022-11-17T19:57:53.414Z,98124.88
2022-11-17T20:00:43.570Z,98122.19
2022-11-17T20:03:21.958Z,98121.59
2022-11-17T20:05:53.622Z,98121.59
2022-11-17T20:08:30.135Z,98116.84
2022-11-17T20:11:18.163Z,98112.31
2022-11-17T20:13:55.050Z,98119.50
2022-11-17T20:16:47.564Z,98120.44
2022-11-17T20:19:19.954Z,98126.38
2022-11-17T20:21:54.658Z,98128.91
2022-11-17T20:24:25.776Z,98129.94
2022-11-17T20:26:58.729Z,98132.16
2022-11-17T20:29:28.599Z,98123.88
2022-11-17T20:32:08.708Z,98133.50
2022-11-17T20:34:38.452Z,98144.97
2022-11-17T20:37:10.752Z,98140.47
2022-11-17T20:39:41.434Z,98138.00
2022-11-17T20:42:18.809Z,98139.06
2022-11-17T20:44:51.728Z,98131.97
2022-11-17T20:47:30.019Z,98136.31
2022-11-17T20:50:01.469Z,98140.06
2022-11-17T20:52:32.810Z,98143.44
2022-11-17T20:55:02.597Z,98123.56
2022-11-17T20:57:35.614Z,98117.03
2022-11-17T21:00:07.089Z,98129.13
2022-11-17T21:02:40.099Z,98118.94
2022-11-17T21:05:14.609Z,98110.19
2022-11-17T21:07:44.700Z,98112.16
2022-11-17T21:10:20.950Z,98120.69
2022-11-17T21:12:52.891Z,98128.66
2022-11-17T21:15:22.113Z,98123.66
2022-11-17T21:18:08.543Z,98113.91
2022-11-17T21:20:41.081Z,98119.25
2022-11-17T21:23:10.716Z,98125.25
2022-11-17T21:25:40.172Z,98113.44
2022-11-17T21:28:16.825Z,98114.22
2022-11-17T21:30:46.753Z,98120.41
2022-11-17T21:33:17.227Z,98129.06
2022-11-17T21:35:45.807Z,98131.19
2022-11-17T21:38:14.391Z,98124.44
2022-11-17T21:40:46.357Z,98118.97
2022-11-17T21:43:21.460Z,98124.28
2022-11-17T21:45:52.188Z,98121.13
2022-11-17T21:48:23.078Z,98130.56
2022-11-17T21:50:52.746Z,98121.72
2022-11-17T21:53:24.207Z,98134.50
2022-11-17T21:55:53.602Z,98128.13
2022-11-17T21:58:25.691Z,98127.97
2022-11-17T22:00:54.915Z,98122.91
2022-11-17T22:03:24.356Z,98129.00
2022-11-17T22:05:54.832Z,98126.41
2022-11-17T22:08:26.670Z,98120.56
2022-11-17T22:10:55.737Z,98123.13
2022-11-17T22:13:31.462Z,98122.97
2022-11-17T22:16:09.086Z,98123.78
2022-11-17T22:18:37.924Z,98114.31
2022-11-17T22:21:10.213Z,98108.84
2022-11-17T22:23:38.975Z,98101.03
2022-11-17T22:26:14.136Z,98087.50
2022-11-17T22:28:44.277Z,98097.22
2022-11-17T22:31:13.446Z,98104.34
2022-11-17T22:33:44.353Z,98117.97
2022-11-17T22:36:16.220Z,98113.06
2022-11-17T22:38:46.460Z,98103.25
2022-11-17T22:41:15.936Z,98104.16
2022-11-17T22:43:56.502Z,98095.38
2022-11-17T22:46:28.431Z,98102.69
2022-11-17T22:48:56.838Z,98113.19
2022-11-17T22:51:45.748Z,98103.22
2022-11-17T22:54:14.866Z,98094.91
2022-11-17T22:56:44.477Z,98092.13
2022-11-17T22:59:17.043Z,98089.94
2022-11-17T23:01:55.617Z,98095.91
2022-11-17T23:04:26.415Z,98103.56
2022-11-17T23:06:55.799Z,98101.53
2022-11-17T23:09:27.755Z,98099.34
2022-11-17T23:11:57.388Z,98088.03
2022-11-17T23:14:30.032Z,98083.16
2022-11-17T23:16:59.578Z,98072.34
2022-11-17T23:19:30.240Z,98072.88
2022-11-17T23:22:07.157Z,98059.22
2022-11-17T23:24:35.241Z,98074.31
2022-11-17T23:27:07.429Z,98077.38
2022-11-17T23:29:45.605Z,98088.25
2022-11-17T23:32:14.826Z,98083.69
2022-11-17T23:34:45.289Z,98078.50
2022-11-17T23:37:19.529Z,98079.50
2022-11-17T23:39:48.091Z,98079.59
2022-11-17T23:42:17.425Z,98074.78
2022-11-17T23:44:47.340Z,98068.84
2022-11-17T23:47:19.107Z,98068.72
2022-11-17T23:49:47.938Z,98064.88
2022-11-17T23:52:19.799Z,98064.53
2022-11-17T23:54:47.950Z,98070.63
2022-11-17T23:57:16.629Z,98067.28
2022-11-17T23:59:47.449Z,98063.19
